Orlando, FL (32807)

3:55 PM EDT on August 29, 2016 (GMT -0400)
Azalea Park | | Change Station

Elev 104 ft 28.54 °N, 81.30 °W | Updated 9 seconds ago

Scattered Clouds
Scattered Clouds
85.5 °F
Feels Like 100 °F
N
0.0
Wind Variable Wind from ESE
Gusts 8.8 mph

Today
High -- | Low -- °F
--% Chance of Precip.
Yesterday
High -- | Low -- °F
Precip. -- in
Pressure 29.94 in
Visibility 10.0 miles
Clouds Few 2300 ft
Scattered Clouds 3000 ft
Scattered Clouds 4000 ft
Heat Index 100 °F
Dew Point 80 °F
Humidity 83%
Rainfall 0.00 in
Snow Depth Not available.
7:02 AM 7:49 PM
Waning Crescent, 7% visible
METAR KORL 291953Z 15008KT 10SM VCTS FEW023 SCT030 SCT040 29/26 A2993 RMK AO2 LTG DSNT N AND NE AND SW RAB39E53 SLP136 P0011 T02890256
Pressure 29.94 in
Visibility 10.0 miles
Clouds Few 2300 ft
Scattered Clouds 3000 ft
Scattered Clouds 4000 ft
Heat Index 100 °F
Dew Point 80 °F
Humidity 83%
Rainfall 0.00 in
Snow Depth Not available.
7:02 AM 7:49 PM
Waning Crescent, 7% visible
METAR KORL 291953Z 15008KT 10SM VCTS FEW023 SCT030 SCT040 29/26 A2993 RMK AO2 LTG DSNT N AND NE AND SW RAB39E53 SLP136 P0011 T02890256
Tropical Depression Nine was centered about 170 miles west-southwest of Key West, Florida, as of late Monday morning. The depression may struggle a bit in the southern Gulf of Mexico before finally making a Gulf Coast landfall later this week with soaking rain and gusty winds.

This latest system was designated a tropical depression Sunday after a Hurricane Hunter reconnaissance mission finally found a sufficiently organized low-pressure center with collocated shower and thunderstorm activity.

10-Day Weather Forecast

Almanac

Astronomy

Aug. 29, 2016 Rise Set
Actual Time
Civil Twilight
Nautical Twilight
Astronomical Twilight
Moon
Length of Visible Light
Length of Day
Tomorrow will be .
, % of the Moon is Illuminated

Today's Extremes

State Highs State Lows

Community

WunderPhotos

Upload Photos

1,935,642 photos uploaded!

WunderBlog® & News

Nearby

Air Quality

  Air Quality AQ Index Pollutant
Not available.

Snow Depth

Station Depth Elevation

Earthquake Activity

City Distance Mag. Time & Date
Minimum magnitude displayed is 2.5.

Coastal Water Temperatures

Place Temperature

Stations

Nearby Weather Stations

Station Location Temp. Windchill Dew Point Humidity Wind Precip. Elev Updated Type
                   

Watches & Warnings

There are currently no watches in effect.